KAWM

Details ICAO KAWM
Name WEST MEMPHIS MUNI
Region United States
Timezone America/Chicago (UTC-6.0)
Plans Departing 3
Arriving 4
Stats Elevation 212 ft / 65 m (AMSL)
Location 35.135057° -90.234448°
Runways 1
Magnetic Variation 1.180° W
Sunrise 2017-12-16 13:04:07 UTC / 2017-12-16 07:04:07 Local
Sunset 2017-12-16 22:52:02 UTC / 2017-12-16 16:52:02 Local
Advertisement - Login to hide

Runways

ID Width Length Bearing (true) Bearing (mag) Surface Threshold Offset Overrun Length
17 100 ft / 30 m 6,018 ft / 1,834 m 180.54° 181.72° Concrete 0 ft / 0 m 0 ft / 0 m
35 100 ft / 30 m 6,018 ft / 1,834 m 0.54° 1.72° Concrete 0 ft / 0 m 0 ft / 0 m

Map

Weather


0- 5 10 15 20 25 30 35+ Temperature / ° C

Clouds and Precipitation
Forecast for 2017-12-16 18:00 UTC. Updated 18 minutes ago

Ground ~20,000 ft ~40,000 ft Winds

METAR

KAWM 161253Z AUTO 18007KT 10SM CLR 00/M02 A3021 RMK AO2 SLP234 T00001022

TAF

Not found

Frequencies

Recorded 118.17 MHz ASOS
Clearance 121.70 MHz MEMPHIS CLNC DEL
Approach 119.10 MHz MEMPHIS APP
Departure 124.65 MHz MEMPHIS DEP
Unicom 123.05 MHz CTAF/UNICOM
Clearance 118.50 MHz MEMPHIS CLNC DEL
Approach 126.70 MHz MEMPHIS APP
Warning: Do not use this data for real-world aviation or navigation. No guarantee of current accuracy is given.